Time;durP1;ratioP1;P1;durP2;ratioP2;P2;SDS_P1;SDS_P2;PMS_P1;PMS_P2;Temp;Humidity;BMP_temperature;BMP_pressure;BME280_temperature;BME280_humidity;BME280_pressure;Samples;Min_cycle;Max_cycle;Signal;HPM_P1;HPM_P2
2023/07/19 00:00:06;;;;;;;;;;;;;;;14.33;100.00;101397.75;4997454;28;20277;-70
2023/07/19 00:02:31;;;;;;;;;;;;;;;14.39;100.00;101399.94;4993902;28;19947;-70
2023/07/19 00:04:56;;;;;;;;;;;;;;;14.33;100.00;101409.44;4981182;28;20379;-70
2023/07/19 00:07:21;;;;;;;;;;;;;;;14.24;100.00;101410.19;4983530;28;20435;-71
2023/07/19 00:09:46;;;;;;;;;;;;;;;14.10;100.00;101406.84;4994561;28;20335;-71
2023/07/19 00:12:12;;;;;;;;;;;;;;;14.02;100.00;101397.66;4994654;28;19925;-71
2023/07/19 00:14:37;;;;;;;;;;;;;;;13.91;100.00;101403.94;4997480;28;19929;-70
2023/07/19 00:17:02;;;;;;;;;;;;;;;13.84;100.00;101406.28;4991898;28;19925;-71
2023/07/19 00:19:28;;;;;;;;;;;;;;;13.87;100.00;101399.81;4992061;28;20132;-70
2023/07/19 00:21:53;;;;;;;;;;;;;;;13.92;100.00;101392.16;4995253;28;19921;-71
2023/07/19 00:24:18;;;;;;;;;;;;;;;13.97;100.00;101395.34;4994545;28;20290;-71
2023/07/19 00:26:45;;;;;;;;;;;;;;;13.92;100.00;101392.16;4978234;28;20690;-71
2023/07/19 00:29:10;;;;;;;;;;;;;;;13.84;100.00;101390.09;5009964;28;20007;-71
2023/07/19 00:31:35;;;;;;;;;;;;;;;13.72;100.00;101391.13;4991991;28;20498;-70
2023/07/19 00:34:01;;;;;;;;;;;;;;;13.63;100.00;101390.91;5008035;28;20463;-71
2023/07/19 00:36:26;;;;;;;;;;;;;;;13.64;100.00;101384.53;4993951;28;19933;-70
2023/07/19 00:38:51;;;;;;;;;;;;;;;13.55;100.00;101382.56;4989543;28;20062;-71
2023/07/19 00:41:18;;;;;;;;;;;;;;;13.56;100.00;101376.19;4991941;28;19928;-71
2023/07/19 00:43:43;;;;;;;;;;;;;;;13.61;100.00;101373.13;4995991;28;19948;-70
2023/07/19 00:46:08;;;;;;;;;;;;;;;13.58;100.00;101363.44;4996805;28;19925;-71
2023/07/19 00:48:33;;;;;;;;;;;;;;;13.62;100.00;101367.59;5008069;28;19932;-70
2023/07/19 00:50:59;;;;;;;;;;;;;;;13.67;100.00;101366.38;5011076;28;19917;-71
2023/07/19 00:53:24;;;;;;;;;;;;;;;13.64;100.00;101360.22;5011690;28;19931;-71
2023/07/19 00:55:50;;;;;;;;;;;;;;;13.61;100.00;101360.47;4992300;28;19939;-71
2023/07/19 00:58:15;;;;;;;;;;;;;;;13.46;100.00;101357.22;5007329;28;19917;-70
2023/07/19 01:00:41;;;;;;;;;;;;;;;13.28;100.00;101354.13;4994650;28;19925;-70
2023/07/19 01:03:06;;;;;;;;;;;;;;;13.24;100.00;101349.13;4993944;28;20156;-70
2023/07/19 01:05:31;;;;;;;;;;;;;;;13.26;100.00;101356.09;5011574;28;19932;-70
2023/07/19 01:07:58;;;;;;;;;;;;;;;13.25;100.00;101346.28;5011463;28;19925;-70
2023/07/19 01:10:23;;;;;;;;;;;;;;;13.30;100.00;101340.53;5012918;28;20011;-70
2023/07/19 01:13:01;;;;;;;;;;;;;;;13.26;100.00;101339.06;4994750;28;19932;-71
2023/07/19 01:15:27;;;;;;;;;;;;;;;13.28;100.00;101343.34;4991695;28;19994;-71
2023/07/19 01:17:52;;;;;;;;;;;;;;;13.25;100.00;101335.50;5009285;28;20439;-71
2023/07/19 01:20:17;;;;;;;;;;;;;;;13.26;100.00;101345.31;5011246;28;20425;-71
2023/07/19 01:22:45;;;;;;;;;;;;;;;13.23;100.00;101340.19;5009102;28;20485;-71
2023/07/19 01:25:10;;;;;;;;;;;;;;;13.26;100.00;101339.06;4993254;28;20399;-71
2023/07/19 01:27:35;;;;;;;;;;;;;;;13.24;100.00;101341.91;4991887;28;20427;-71
2023/07/19 01:30:00;;;;;;;;;;;;;;;13.29;100.00;101342.38;4993766;28;20016;-70
2023/07/19 01:32:25;;;;;;;;;;;;;;;13.35;100.00;101335.63;5010399;28;20035;-70
2023/07/19 01:34:51;;;;;;;;;;;;;;;13.37;100.00;101336.38;5013365;28;19925;-71
2023/07/19 01:37:16;;;;;;;;;;;;;;;13.40;100.00;101321.75;5012170;28;19931;-70
2023/07/19 01:39:43;;;;;;;;;;;;;;;13.43;100.00;101321.56;5012032;28;19928;-71
2023/07/19 01:42:08;;;;;;;;;;;;;;;13.50;100.00;101317.38;4992919;28;19925;-71
2023/07/19 01:44:33;;;;;;;;;;;;;;;13.56;100.00;101322.22;4995149;28;20509;-70
2023/07/19 01:46:58;;;;;;;;;;;;;;;13.61;100.00;101322.72;5009659;28;20469;-71
2023/07/19 01:49:23;;;;;;;;;;;;;;;13.58;100.00;101322.13;5010979;28;20478;-71
2023/07/19 01:51:49;;;;;;;;;;;;;;;13.53;100.00;101325.19;5009977;28;20364;-71
2023/07/19 01:54:14;;;;;;;;;;;;;;;13.45;100.00;101330.38;4994421;28;19968;-70
2023/07/19 01:56:39;;;;;;;;;;;;;;;13.40;100.00;101327.16;4995299;28;20024;-70
2023/07/19 01:59:04;;;;;;;;;;;;;;;13.34;100.00;101331.22;4993308;28;19976;-71
2023/07/19 02:01:30;;;;;;;;;;;;;;;13.32;100.00;101331.34;5008949;28;19925;-71
2023/07/19 02:03:55;;;;;;;;;;;;;;;13.33;100.00;101330.34;5010412;28;19965;-71
2023/07/19 02:06:20;;;;;;;;;;;;;;;13.29;100.00;101322.66;4990164;28;19971;-71
2023/07/19 02:08:45;;;;;;;;;;;;;;;13.26;100.00;101322.91;4992147;28;20589;-71
2023/07/19 02:11:10;;;;;;;;;;;;;;;13.24;100.00;101322.16;5009557;28;20032;-71
2023/07/19 02:13:36;;;;;;;;;;;;;;;13.22;100.00;101330.41;4978821;28;20075;-71
2023/07/19 02:16:01;;;;;;;;;;;;;;;13.21;100.00;101317.88;5010329;28;20018;-71
2023/07/19 02:18:26;;;;;;;;;;;;;;;13.16;100.00;101322.78;5011957;28;19930;-71
2023/07/19 02:20:53;;;;;;;;;;;;;;;13.16;100.00;101318.25;4993947;28;19925;-71
2023/07/19 02:23:19;;;;;;;;;;;;;;;13.23;100.00;101312.34;4987793;28;20343;-70
2023/07/19 02:25:46;;;;;;;;;;;;;;;13.29;100.00;101318.09;5009382;28;19925;-71
2023/07/19 02:28:11;;;;;;;;;;;;;;;13.31;100.00;101308.03;4975665;28;19955;-70
2023/07/19 02:30:40;;;;;;;;;;;;;;;13.35;100.00;101305.97;5011457;28;20371;-71
2023/07/19 02:33:06;;;;;;;;;;;;;;;13.34;100.00;101315.88;4999162;28;19925;-70
2023/07/19 02:35:31;;;;;;;;;;;;;;;13.30;100.00;101309.03;5010349;28;20325;-71
2023/07/19 02:37:56;;;;;;;;;;;;;;;13.27;100.00;101311.13;4989553;28;20329;-71
2023/07/19 02:40:21;;;;;;;;;;;;;;;13.27;100.00;101311.97;4978002;28;20339;-70
2023/07/19 02:42:46;;;;;;;;;;;;;;;13.27;100.00;101303.03;4996309;28;20110;-70
2023/07/19 02:45:12;;;;;;;;;;;;;;;13.29;100.00;101301.06;4980840;28;20019;-71
2023/07/19 02:47:37;;;;;;;;;;;;;;;13.32;100.00;101312.47;4979416;28;19937;-71
2023/07/19 02:50:02;;;;;;;;;;;;;;;13.33;100.00;101307.94;4996136;28;19927;-71
2023/07/19 02:52:27;;;;;;;;;;;;;;;13.33;100.00;101313.34;5010959;28;19929;-71
2023/07/19 02:54:53;;;;;;;;;;;;;;;13.31;100.00;101318.84;4978108;28;19918;-71
2023/07/19 02:57:18;;;;;;;;;;;;;;;13.27;100.00;101320.06;5008205;28;19925;-71
2023/07/19 02:59:43;;;;;;;;;;;;;;;13.18;100.00;101316.28;4995216;28;20344;-71
2023/07/19 03:02:10;;;;;;;;;;;;;;;13.13;100.00;101323.88;5010276;28;19964;-70
2023/07/19 03:04:35;;;;;;;;;;;;;;;13.10;100.00;101329.56;5012677;28;19936;-70
2023/07/19 03:07:00;;;;;;;;;;;;;;;13.11;100.00;101325.00;5016716;28;19928;-71
2023/07/19 03:09:26;;;;;;;;;;;;;;;13.12;100.00;101326.72;5009972;28;19921;-70
2023/07/19 03:11:51;;;;;;;;;;;;;;;13.15;100.00;101323.78;4999322;28;19959;-70
2023/07/19 03:14:16;;;;;;;;;;;;;;;13.18;100.00;101318.13;4994685;28;19925;-69
2023/07/19 03:16:42;;;;;;;;;;;;;;;13.15;100.00;101326.47;4996001;28;20330;-70
2023/07/19 03:19:08;;;;;;;;;;;;;;;13.10;100.00;101324.16;4998025;28;20498;-70
2023/07/19 03:21:33;;;;;;;;;;;;;;;13.09;100.00;101324.25;5017744;28;20413;-71
2023/07/19 03:23:58;;;;;;;;;;;;;;;13.01;100.00;101319.50;5014810;28;20352;-71
2023/07/19 03:26:24;;;;;;;;;;;;;;;12.95;100.00;101320.00;5017248;28;19921;-70
2023/07/19 03:28:49;;;;;;;;;;;;;;;12.94;100.00;101320.97;4997709;28;20051;-71
2023/07/19 03:31:14;;;;;;;;;;;;;;;12.93;100.00;101325.50;5011934;28;20447;-71
2023/07/19 03:33:40;;;;;;;;;;;;;;;12.96;100.00;101316.31;5012520;28;19929;-70
2023/07/19 03:36:05;;;;;;;;;;;;;;;12.96;100.00;101314.50;4993260;28;19925;-71
2023/07/19 03:38:30;;;;;;;;;;;;;;;12.99;100.00;101318.75;4994326;28;20400;-70
2023/07/19 03:41:03;;;;;;;;;;;;;;;12.99;100.00;101326.84;4994092;28;19922;-70
2023/07/19 03:43:28;;;;;;;;;;;;;;;13.07;100.00;101331.63;5013870;28;20319;-70
2023/07/19 03:45:53;;;;;;;;;;;;;;;13.14;100.00;101333.69;5011958;28;20435;-70
2023/07/19 03:48:18;;;;;;;;;;;;;;;13.25;100.00;101335.50;5016021;28;20347;-70
2023/07/19 03:50:44;;;;;;;;;;;;;;;13.33;100.00;101343.84;5016052;28;20408;-71
2023/07/19 03:53:09;;;;;;;;;;;;;;;13.39;100.00;101333.53;4995315;28;19929;-70
2023/07/19 03:55:34;;;;;;;;;;;;;;;13.41;100.00;101340.53;5013068;28;19932;-70
2023/07/19 03:57:59;;;;;;;;;;;;;;;13.37;100.00;101335.50;5011225;28;20477;-70
2023/07/19 04:00:24;;;;;;;;;;;;;;;13.40;100.00;101332.56;5014807;28;20920;-71
2023/07/19 04:02:50;;;;;;;;;;;;;;;13.40;100.00;101328.00;5013575;28;20027;-71
2023/07/19 04:05:16;;;;;;;;;;;;;;;13.40;100.00;101327.16;5012846;28;20263;-71
2023/07/19 04:07:41;;;;;;;;;;;;;;;13.42;100.00;101325.22;5013142;28;19943;-71
2023/07/19 04:10:06;;;;;;;;;;;;;;;13.40;100.00;101321.75;5011948;28;20058;-70
2023/07/19 04:12:31;;;;;;;;;;;;;;;13.46;100.00;101324.84;5011615;28;20098;-71
2023/07/19 04:14:57;;;;;;;;;;;;;;;13.47;100.00;101331.94;5013678;28;20069;-71
2023/07/19 04:17:22;;;;;;;;;;;;;;;13.47;100.00;101337.34;5013904;28;19982;-71
2023/07/19 04:19:47;;;;;;;;;;;;;;;13.45;100.00;101325.81;5014854;28;20035;-71
2023/07/19 04:22:12;;;;;;;;;;;;;;;13.53;100.00;101324.34;4997185;28;19963;-71
2023/07/19 04:24:37;;;;;;;;;;;;;;;13.61;100.00;101324.56;4982173;28;20017;-71
2023/07/19 04:27:03;;;;;;;;;;;;;;;13.75;100.00;101324.25;4974394;28;20147;-71
2023/07/19 04:29:28;;;;;;;;;;;;;;;13.89;100.00;101315.00;4993513;28;19927;-71
2023/07/19 04:31:53;;;;;;;;;;;;;;;13.98;100.00;101316.06;4994262;28;19936;-71
2023/07/19 04:34:20;;;;;;;;;;;;;;;14.05;100.00;101321.78;5013598;28;20330;-71
2023/07/19 04:36:45;;;;;;;;;;;;;;;14.10;100.00;101328.53;5011892;28;19932;-71
2023/07/19 04:39:10;;;;;;;;;;;;;;;14.16;100.00;101326.31;4981900;28;20323;-71
2023/07/19 04:41:36;;;;;;;;;;;;;;;14.22;100.00;101329.31;5013125;28;19929;-71
2023/07/19 04:44:01;;;;;;;;;;;;;;;14.33;100.00;101328.41;5011639;28;20010;-71
2023/07/19 04:46:26;;;;;;;;;;;;;;;14.44;100.00;101321.19;5008967;28;20089;-70
2023/07/19 04:48:51;;;;;;;;;;;;;;;14.45;100.00;101321.06;5011173;28;19924;-71
2023/07/19 04:51:17;;;;;;;;;;;;;;;14.53;100.00;101333.91;5010427;28;20500;-70
2023/07/19 04:53:42;;;;;;;;;;;;;;;14.55;100.00;101332.81;5012782;28;20541;-71
2023/07/19 04:56:07;;;;;;;;;;;;;;;14.65;100.00;101340.09;4994797;28;20016;-71
2023/07/19 04:58:32;;;;;;;;;;;;;;;14.76;100.00;101336.47;4989709;28;20111;-71
2023/07/19 05:01:05;;;;;;;;;;;;;;;14.84;100.00;101340.22;4992263;28;20358;-71
2023/07/19 05:03:30;;;;;;;;;;;;;;;14.92;100.00;101341.38;4991187;28;19960;-71
2023/07/19 05:05:55;;;;;;;;;;;;;;;14.98;100.00;101343.56;4991617;28;19968;-71
2023/07/19 05:08:20;;;;;;;;;;;;;;;15.04;100.00;101343.00;4992828;28;20024;-71
2023/07/19 05:10:46;;;;;;;;;;;;;;;15.12;100.00;101335.06;5011474;28;19925;-71
2023/07/19 05:13:11;;;;;;;;;;;;;;;15.25;100.00;101340.22;4993465;28;20270;-71
2023/07/19 05:15:36;;;;;;;;;;;;;;;15.38;100.00;101341.84;4981197;28;20370;-71
2023/07/19 05:18:02;;;;;;;;;;;;;;;15.47;100.00;101343.72;4992678;28;20375;-71
2023/07/19 05:20:28;;;;;;;;;;;;;;;15.56;100.00;101334.72;4992292;28;19940;-71
2023/07/19 05:22:53;;;;;;;;;;;;;;;15.66;100.00;101340.16;5003428;28;19925;-71
2023/07/19 05:25:18;;;;;;;;;;;;;;;15.65;100.00;101343.00;5006162;28;19960;-71
2023/07/19 05:27:43;;;;;;;;;;;;;;;15.70;100.00;101325.34;4990917;28;20016;-71
2023/07/19 05:30:09;;;;;;;;;;;;;;;15.91;100.00;101334.38;5010406;28;20024;-71
2023/07/19 05:32:34;;;;;;;;;;;;;;;15.96;100.00;101330.22;4991927;28;19968;-71
2023/07/19 05:34:59;;;;;;;;;;;;;;;16.12;100.00;101339.66;5010614;28;19952;-71
2023/07/19 05:37:25;;;;;;;;;;;;;;;16.24;100.00;101332.22;4995916;28;20439;-71
2023/07/19 05:39:50;;;;;;;;;;;;;;;16.36;100.00;101330.19;5009230;28;20410;-71
2023/07/19 05:42:15;;;;;;;;;;;;;;;16.45;100.00;101329.31;4993100;28;19993;-71
2023/07/19 05:44:41;;;;;;;;;;;;;;;16.52;100.00;101326.88;5015582;28;19953;-70
2023/07/19 05:47:06;;;;;;;;;;;;;;;16.68;100.00;101324.41;5021421;28;19921;-71
2023/07/19 05:49:31;;;;;;;;;;;;;;;16.76;100.00;101327.22;5012982;28;20250;-71
2023/07/19 05:51:56;;;;;;;;;;;;;;;16.85;100.00;101319.19;4996251;28;20012;-71
2023/07/19 05:54:21;;;;;;;;;;;;;;;16.88;100.00;101324.31;5003898;28;19925;-71
2023/07/19 05:56:47;;;;;;;;;;;;;;;17.05;100.00;101323.56;4996902;28;20493;-71
2023/07/19 05:59:13;;;;;;;;;;;;;;;17.08;100.00;101330.53;5014655;28;20082;-71
2023/07/19 06:01:38;;;;;;;;;;;;;;;17.09;100.00;101326.81;4986764;28;20020;-70
2023/07/19 06:04:04;;;;;;;;;;;;;;;17.23;100.00;101329.03;4995486;28;19964;-71
2023/07/19 06:06:29;;;;;;;;;;;;;;;17.29;100.00;101326.72;4994538;28;19925;-70
2023/07/19 06:08:54;;;;;;;;;;;;;;;17.38;100.00;101328.53;4979244;28;19964;-71
2023/07/19 06:11:19;;;;;;;;;;;;;;;17.46;100.00;101331.34;5000108;28;20323;-71
2023/07/19 06:13:44;;;;;;;;;;;;;;;17.47;100.00;101321.31;4996530;28;19921;-71
2023/07/19 06:16:10;;;;;;;;;;;;;;;17.50;100.00;101326.44;4993339;28;19930;-71
2023/07/19 06:18:35;;;;;;;;;;;;;;;17.62;100.00;101327.06;5008510;28;20255;-72
2023/07/19 06:21:00;;;;;;;;;;;;;;;17.67;100.00;101320.16;5005205;28;19975;-71
2023/07/19 06:23:25;;;;;;;;;;;;;;;17.74;100.00;101320.44;5013761;28;20022;-72
2023/07/19 06:25:51;;;;;;;;;;;;;;;17.78;100.00;101319.09;4992170;28;20071;-72
2023/07/19 06:28:16;;;;;;;;;;;;;;;17.85;100.00;101319.34;5004820;28;19968;-71
2023/07/19 06:30:41;;;;;;;;;;;;;;;17.91;100.00;101315.13;5005903;28;20025;-71
2023/07/19 06:33:06;;;;;;;;;;;;;;;17.99;100.00;101315.25;5009629;28;19971;-72
2023/07/19 06:35:33;;;;;;;;;;;;;;;18.11;100.00;101321.28;5010893;28;19917;-71
2023/07/19 06:37:58;;;;;;;;;;;;;;;18.21;100.00;101316.59;4972987;28;19930;-71
2023/07/19 06:40:23;;;;;;;;;;;;;;;18.21;100.00;101318.47;5010253;28;19949;-71
2023/07/19 06:42:49;;;;;;;;;;;;;;;18.27;100.00;101321.41;5005903;28;19925;-72
2023/07/19 06:45:14;;;;;;;;;;;;;;;18.35;100.00;101322.47;5000390;28;20019;-71
2023/07/19 06:47:39;;;;;;;;;;;;;;;18.33;100.00;101314.47;5012908;28;19961;-72
2023/07/19 06:50:05;;;;;;;;;;;;;;;18.34;100.00;101315.34;5010074;28;20289;-71
2023/07/19 06:52:30;;;;;;;;;;;;;;;18.39;100.00;101321.16;5007070;28;20107;-71
2023/07/19 06:54:55;;;;;;;;;;;;;;;18.52;100.00;101321.56;5008304;28;19956;-71
2023/07/19 06:57:21;;;;;;;;;;;;;;;18.55;100.00;101320.38;5005623;28;19929;-71
2023/07/19 06:59:49;;;;;;;;;;;;;;;18.73;100.00;101326.63;5011086;28;20031;-71
2023/07/19 07:02:14;;;;;;;;;;;;;;;18.94;100.00;101322.63;5005624;28;19931;-71
2023/07/19 07:04:39;;;;;;;;;;;;;;;19.09;100.00;101316.59;4990954;28;19925;-72
2023/07/19 07:07:05;;;;;;;;;;;;;;;19.19;100.00;101309.16;5006356;28;19968;-71
2023/07/19 07:09:31;;;;;;;;;;;;;;;19.30;100.00;101313.44;5009526;28;22863;-72
2023/07/19 07:11:56;;;;;;;;;;;;;;;19.42;100.00;101317.56;4992841;28;20386;-71
2023/07/19 07:14:21;;;;;;;;;;;;;;;19.49;100.00;101313.13;4991331;28;19925;-73
2023/07/19 07:16:47;;;;;;;;;;;;;;;19.72;100.00;101317.09;5011552;28;19928;-73
2023/07/19 07:19:12;;;;;;;;;;;;;;;19.83;100.00;101308.63;5011541;28;19972;-73
2023/07/19 07:21:37;;;;;;;;;;;;;;;19.85;100.00;101313.88;5010691;28;20032;-74
2023/07/19 07:24:02;;;;;;;;;;;;;;;20.03;100.00;101313.75;4994802;28;19933;-74
2023/07/19 07:26:28;;;;;;;;;;;;;;;20.08;100.00;101306.75;5011171;28;20314;-72
2023/07/19 07:28:53;;;;;;;;;;;;;;;20.30;100.00;101309.78;5012960;28;20057;-73
2023/07/19 07:31:18;;;;;;;;;;;;;;;20.28;100.00;101297.38;5010590;28;19921;-70
2023/07/19 07:33:43;;;;;;;;;;;;;;;20.37;100.00;101302.63;5000077;28;20011;-70
2023/07/19 07:36:08;;;;;;;;;;;;;;;20.60;100.00;101307.34;5015862;28;20442;-71
2023/07/19 07:38:34;;;;;;;;;;;;;;;20.71;100.00;101306.13;5015936;28;19921;-70
2023/07/19 07:41:03;;;;;;;;;;;;;;;20.80;100.00;101299.66;5014156;28;19925;-70
2023/07/19 07:43:29;;;;;;;;;;;;;;;20.71;100.00;101286.19;5012773;28;20186;-71
2023/07/19 07:45:55;;;;;;;;;;;;;;;20.81;100.00;101305.94;4994886;28;19932;-71
2023/07/19 07:48:20;;;;;;;;;;;;;;;20.82;100.00;101305.78;5012150;28;19928;-71
2023/07/19 07:50:49;;;;;;;;;;;;;;;20.83;100.00;101310.22;5016493;28;19932;-72
2023/07/19 07:53:14;;;;;;;;;;;;;;;20.95;100.00;101307.97;5015435;28;20032;-72
2023/07/19 07:55:40;;;;;;;;;;;;;;;21.01;100.00;101308.28;5011742;28;20338;-71
2023/07/19 07:58:05;;;;;;;;;;;;;;;21.11;100.00;101301.56;5009247;28;19921;-71
2023/07/19 08:00:30;;;;;;;;;;;;;;;21.31;100.00;101292.94;4994853;28;19932;-72
2023/07/19 08:02:56;;;;;;;;;;;;;;;21.56;100.00;101290.03;5010598;28;20011;-71
2023/07/19 08:05:21;;;;;;;;;;;;;;;21.85;98.72;101288.50;5013416;28;20217;-70
2023/07/19 08:07:46;;;;;;;;;;;;;;;21.92;97.48;101288.59;5014223;28;19925;-71
2023/07/19 08:10:11;;;;;;;;;;;;;;;21.90;95.78;101288.81;4994960;28;19925;-71
2023/07/19 08:12:37;;;;;;;;;;;;;;;21.98;93.31;101283.25;5012107;28;19921;-71
2023/07/19 08:15:03;;;;;;;;;;;;;;;22.06;93.13;101287.81;4989893;28;19925;-71
2023/07/19 08:17:28;;;;;;;;;;;;;;;21.99;92.83;101289.56;5011909;28;19936;-70
2023/07/19 08:19:53;;;;;;;;;;;;;;;21.96;92.59;101282.59;5013538;28;20317;-71
2023/07/19 08:22:25;;;;;;;;;;;;;;;22.00;90.45;101280.34;5007273;28;20027;-70
2023/07/19 08:24:50;;;;;;;;;;;;;;;21.85;87.02;101283.84;5012115;28;19925;-69
2023/07/19 08:27:15;;;;;;;;;;;;;;;21.96;91.90;101279.88;4995372;28;19971;-70
2023/07/19 08:29:41;;;;;;;;;;;;;;;21.83;85.98;101277.75;5016241;28;20811;-69
2023/07/19 08:32:06;;;;;;;;;;;;;;;21.80;89.86;101278.13;5009294;28;20442;-71
2023/07/19 08:34:31;;;;;;;;;;;;;;;21.79;89.21;101284.63;4991153;28;19998;-72
2023/07/19 08:36:56;;;;;;;;;;;;;;;21.77;86.55;101283.94;4993418;28;19921;-70
2023/07/19 08:39:23;;;;;;;;;;;;;;;21.87;88.65;101281.78;4996215;28;19942;-70
2023/07/19 08:41:48;;;;;;;;;;;;;;;21.95;83.84;101277.31;5016636;28;19925;-71
2023/07/19 08:44:13;;;;;;;;;;;;;;;22.06;89.41;101278.75;5013325;28;19987;-70
2023/07/19 08:46:39;;;;;;;;;;;;;;;22.21;89.37;101270.56;4994269;28;19925;-71
2023/07/19 08:49:04;;;;;;;;;;;;;;;22.06;92.63;101271.41;5013944;28;19925;-71
2023/07/19 08:51:30;;;;;;;;;;;;;;;22.14;93.77;101275.94;4995961;28;19925;-70
2023/07/19 08:53:55;;;;;;;;;;;;;;;22.16;89.54;101280.16;4996850;28;20295;-71
2023/07/19 08:56:20;;;;;;;;;;;;;;;22.03;86.99;101280.81;5011931;28;19925;-71
2023/07/19 08:58:45;;;;;;;;;;;;;;;21.99;87.48;101271.28;5006927;28;19925;-71
2023/07/19 09:01:11;;;;;;;;;;;;;;;22.12;86.31;101278.00;5013578;28;20007;-71
2023/07/19 09:03:37;;;;;;;;;;;;;;;22.07;84.52;101277.72;5006705;28;19925;-72
2023/07/19 09:06:02;;;;;;;;;;;;;;;22.10;85.04;101286.41;5009381;28;19932;-70
2023/07/19 09:08:35;;;;;;;;;;;;;;;21.97;84.32;101286.16;5011311;28;19925;-70
2023/07/19 09:11:00;;;;;;;;;;;;;;;22.06;86.38;101276.00;5008427;28;19921;-71
2023/07/19 09:13:25;;;;;;;;;;;;;;;22.23;90.86;101276.69;5015690;28;20368;-71
2023/07/19 09:15:50;;;;;;;;;;;;;;;22.37;88.63;101270.41;5015018;28;20332;-72
2023/07/19 09:18:17;;;;;;;;;;;;;;;22.32;93.62;101273.69;5012455;28;20452;-70
2023/07/19 09:20:42;;;;;;;;;;;;;;;22.48;85.27;101269.13;5014342;28;19932;-70
2023/07/19 09:23:08;;;;;;;;;;;;;;;21.96;89.41;101274.41;5007871;28;20307;-68
2023/07/19 09:25:34;;;;;;;;;;;;;;;22.32;98.00;101276.44;5012027;28;20518;-69
2023/07/19 09:28:04;;;;;;;;;;;;;;;22.60;88.18;101270.34;4979255;28;19925;-71
2023/07/19 09:30:29;;;;;;;;;;;;;;;22.41;92.96;101268.13;5012075;28;19925;-69
2023/07/19 09:32:58;;;;;;;;;;;;;;;22.33;87.07;101278.13;5013679;28;20435;-71
2023/07/19 09:35:27;;;;;;;;;;;;;;;22.62;89.70;101281.13;5012327;28;20331;-71
2023/07/19 09:37:52;;;;;;;;;;;;;;;22.52;81.26;101286.00;5014747;28;19928;-70
2023/07/19 09:40:17;;;;;;;;;;;;;;;22.39;82.77;101281.16;5016316;28;19925;-72
2023/07/19 09:42:42;;;;;;;;;;;;;;;22.30;81.28;101277.66;4994054;28;19925;-71
2023/07/19 09:45:08;;;;;;;;;;;;;;;22.54;89.18;101282.03;4991742;28;19957;-71
2023/07/19 09:47:35;;;;;;;;;;;;;;;22.56;87.28;101270.91;5010954;28;20027;-71
2023/07/19 09:50:00;;;;;;;;;;;;;;;22.61;87.16;101280.25;4991623;28;19932;-71
2023/07/19 09:52:25;;;;;;;;;;;;;;;22.67;86.60;101270.44;4986437;28;19929;-70
2023/07/19 09:54:50;;;;;;;;;;;;;;;22.87;87.97;101276.16;5006669;28;19960;-70
2023/07/19 09:57:16;;;;;;;;;;;;;;;23.00;85.22;101282.88;5016644;28;20080;-72
2023/07/19 09:59:42;;;;;;;;;;;;;;;23.03;87.67;101282.50;5009462;28;21339;-70
2023/07/19 10:02:07;;;;;;;;;;;;;;;22.97;86.21;101280.50;4993959;28;20717;-71
2023/07/19 10:04:39;;;;;;;;;;;;;;;23.09;86.69;101284.44;5013318;28;20125;-71
2023/07/19 10:07:07;;;;;;;;;;;;;;;23.47;86.18;101281.53;5005920;28;19925;-70
2023/07/19 10:09:36;;;;;;;;;;;;;;;23.17;84.75;101281.59;5013144;28;20283;-71
2023/07/19 10:12:01;;;;;;;;;;;;;;;23.11;82.85;101278.78;5012751;28;19972;-71
2023/07/19 10:14:27;;;;;;;;;;;;;;;22.84;78.46;101275.72;4991747;28;19933;-71
2023/07/19 10:16:57;;;;;;;;;;;;;;;22.74;80.27;101270.53;4993719;28;19968;-71
2023/07/19 10:19:23;;;;;;;;;;;;;;;23.26;81.24;101260.44;4990488;28;19921;-72
2023/07/19 10:22:04;;;;;;;;;;;;;;;23.47;78.84;101267.84;5015037;28;19967;-71
2023/07/19 10:24:35;;;;;;;;;;;;;;;23.95;77.18;101264.50;4994675;28;20291;-71
2023/07/19 10:27:02;;;;;;;;;;;;;;;24.26;71.89;101276.97;4996376;28;19987;-70
2023/07/19 10:29:36;;;;;;;;;;;;;;;23.87;70.49;101267.38;5014766;28;19936;-75
2023/07/19 10:32:03;;;;;;;;;;;;;;;23.48;71.24;101271.41;4992552;28;19926;-72
2023/07/19 10:34:29;;;;;;;;;;;;;;;23.45;72.67;101269.94;5007403;28;19929;-71
2023/07/19 10:36:55;;;;;;;;;;;;;;;23.47;73.91;101265.09;5005903;28;19928;-71
2023/07/19 10:39:21;;;;;;;;;;;;;;;23.48;72.41;101261.31;5010919;28;20397;-70
2023/07/19 10:41:49;;;;;;;;;;;;;;;23.97;72.68;101256.06;5011556;28;19925;-70
2023/07/19 10:44:14;;;;;;;;;;;;;;;24.22;70.95;101266.63;4998373;28;19925;-71
2023/07/19 10:46:41;;;;;;;;;;;;;;;23.72;76.70;101272.06;5005120;28;19999;-71
2023/07/19 10:49:06;;;;;;;;;;;;;;;23.69;71.65;101265.09;5006581;28;20611;-71
2023/07/19 10:51:31;;;;;;;;;;;;;;;23.72;67.79;101261.97;5009272;28;19958;-71
2023/07/19 10:53:57;;;;;;;;;;;;;;;24.15;67.61;101261.09;5005837;28;20299;-70
2023/07/19 10:56:23;;;;;;;;;;;;;;;24.21;63.90;101263.03;5014486;28;20372;-70
2023/07/19 10:58:48;;;;;;;;;;;;;;;24.61;64.29;101264.31;5003177;28;19961;-70
2023/07/19 11:01:13;;;;;;;;;;;;;;;24.84;68.13;101262.16;5008549;28;19947;-70
2023/07/19 11:03:39;;;;;;;;;;;;;;;25.33;63.99;101262.09;4987892;28;19933;-70
2023/07/19 11:06:06;;;;;;;;;;;;;;;25.23;60.55;101250.66;4991256;28;19925;-70
2023/07/19 11:08:32;;;;;;;;;;;;;;;24.74;64.46;101258.09;5014370;28;20284;-70
2023/07/19 11:10:57;;;;;;;;;;;;;;;24.53;65.79;101263.44;5012861;28;19931;-71
2023/07/19 11:13:23;;;;;;;;;;;;;;;23.53;72.06;101258.00;4990437;28;20228;-70
2023/07/19 11:15:53;;;;;;;;;;;;;;;23.55;68.51;101253.16;5019010;28;19929;-70
2023/07/19 11:18:29;;;;;;;;;;;;;;;24.12;68.97;101261.47;5000973;28;19933;-71
2023/07/19 11:20:54;;;;;;;;;;;;;;;24.84;65.08;101261.31;4998225;28;19929;-70
2023/07/19 11:23:20;;;;;;;;;;;;;;;25.55;63.40;101256.47;5002065;28;19936;-71
2023/07/19 11:25:46;;;;;;;;;;;;;;;25.60;62.99;101249.28;5017205;28;19988;-71
2023/07/19 11:28:12;;;;;;;;;;;;;;;24.38;62.13;101249.00;5018199;28;19925;-72
2023/07/19 11:30:38;;;;;;;;;;;;;;;24.21;63.31;101251.19;5016960;28;19935;-71
2023/07/19 11:33:04;;;;;;;;;;;;;;;24.17;63.26;101252.66;5016616;28;19921;-70
2023/07/19 11:35:29;;;;;;;;;;;;;;;24.85;68.79;101243.78;5010294;28;20411;-71
2023/07/19 11:37:55;;;;;;;;;;;;;;;24.99;63.75;101250.19;5013929;28;20257;-71
2023/07/19 11:40:20;;;;;;;;;;;;;;;24.65;63.53;101252.72;5017261;28;20671;-71
2023/07/19 11:42:50;;;;;;;;;;;;;;;24.29;63.89;101245.56;4997598;28;20395;-71
2023/07/19 11:45:16;;;;;;;;;;;;;;;24.68;62.42;101256.97;5016989;28;20378;-70
2023/07/19 11:47:42;;;;;;;;;;;;;;;24.78;62.69;101251.13;5014123;28;19925;-70
2023/07/19 11:50:08;;;;;;;;;;;;;;;24.80;67.03;101247.13;5013213;28;19925;-70
2023/07/19 11:52:47;;;;;;;;;;;;;;;25.94;63.94;101241.03;5016721;28;19929;-71
2023/07/19 11:55:12;;;;;;;;;;;;;;;26.50;59.76;101233.34;5013031;28;20035;-74
2023/07/19 11:57:38;;;;;;;;;;;;;;;25.98;55.69;101238.69;5001599;28;19959;-70
2023/07/19 12:00:05;;;;;;;;;;;;;;;25.67;55.31;101243.78;5016714;28;19925;-71
2023/07/19 12:02:31;;;;;;;;;;;;;;;25.60;61.76;101245.69;5014858;28;19948;-71
2023/07/19 12:04:56;;;;;;;;;;;;;;;25.58;57.63;101239.53;5010147;28;20371;-70
2023/07/19 12:07:21;;;;;;;;;;;;;;;25.86;60.65;101236.59;5010068;28;19964;-70
2023/07/19 12:09:47;;;;;;;;;;;;;;;26.17;60.52;101237.88;5012588;28;19980;-70
2023/07/19 12:12:12;;;;;;;;;;;;;;;26.78;54.30;101240.47;5012820;28;20011;-74
2023/07/19 12:14:39;;;;;;;;;;;;;;;27.23;50.97;101236.88;5015115;28;19933;-71
2023/07/19 12:17:06;;;;;;;;;;;;;;;28.31;49.76;101238.81;5013926;28;20366;-72
2023/07/19 12:19:31;;;;;;;;;;;;;;;26.98;54.60;101228.53;5014417;28;19925;-69
2023/07/19 12:21:57;;;;;;;;;;;;;;;27.28;52.01;101226.00;5009655;28;19935;-71